Time;durP1;ratioP1;P1;durP2;ratioP2;P2;SDS_P1;SDS_P2;PMS_P1;PMS_P2;Temp;Humidity;BMP_temperature;BMP_pressure;BME280_temperature;BME280_humidity;BME280_pressure;Samples;Min_cycle;Max_cycle;Signal;HPM_P1;HPM_P2
2023/06/15 00:01:15;;;;;;;5.75;2.67;;;;;;;18.21;58.78;101846.81;5030036;28;20747;-70
2023/06/15 00:03:44;;;;;;;;;;;;;;;18.17;59.95;101858.56;5026361;28;20116;-71
2023/06/15 00:06:10;;;;;;;3.17;2.55;;;;;;;18.17;60.51;101853.03;5028456;28;19920;-71
2023/06/15 00:08:35;;;;;;;9.73;2.53;;;;;;;18.17;59.90;101844.69;5021388;28;20033;-70
2023/06/15 00:11:01;;;;;;;4.90;2.60;;;;;;;18.13;60.87;101844.28;5029330;28;20109;-71
2023/06/15 00:13:27;;;;;;;5.63;2.70;;;;;;;18.17;60.60;101848.34;5023510;28;20073;-70
2023/06/15 00:15:53;;;;;;;5.63;2.45;;;;;;;18.15;60.82;101844.09;5026261;28;20025;-71
2023/06/15 00:18:19;;;;;;;5.47;2.40;;;;;;;18.16;61.09;101849.41;5025758;28;20064;-71
2023/06/15 00:20:45;;;;;;;7.70;2.73;;;;;;;18.06;60.97;101834.31;5005218;28;20145;-71
2023/06/15 00:23:10;;;;;;;6.00;3.75;;;;;;;18.02;61.02;101850.56;5024636;28;20378;-71
2023/06/15 00:25:36;;;;;;;3.70;2.20;;;;;;;17.98;61.69;101846.50;5025638;28;20746;-71
2023/06/15 00:28:02;;;;;;;6.03;2.60;;;;;;;17.91;62.04;101845.69;5024733;28;20022;-71
2023/06/15 00:30:28;;;;;;;5.37;2.77;;;;;;;17.94;61.77;101849.97;5023650;28;20511;-71
2023/06/15 00:32:53;;;;;;;14.50;3.00;;;;;;;17.86;62.76;101847.41;5025986;28;20038;-72
2023/06/15 00:35:19;;;;;;;3.90;2.50;;;;;;;17.84;62.65;101841.25;5026110;28;20116;-71
2023/06/15 00:37:44;;;;;;;11.30;2.90;;;;;;;17.76;62.67;101859.00;5022792;28;20053;-72
2023/06/15 00:40:10;;;;;;;6.67;2.77;;;;;;;17.68;63.40;101850.06;5023976;28;20032;-71
2023/06/15 00:42:36;;;;;;;5.53;2.77;;;;;;;17.72;63.50;101852.16;5028799;28;20146;-71
2023/06/15 00:45:03;;;;;;;2.50;2.30;;;;;;;17.65;63.58;101854.13;5022817;28;20754;-71
2023/06/15 00:47:29;;;;;;;4.07;2.70;;;;;;;17.61;64.17;101860.34;5026503;28;20036;-71
2023/06/15 00:49:57;;;;;;;5.80;2.88;;;;;;;17.61;64.15;101854.78;5022247;28;20044;-71
2023/06/15 00:52:23;;;;;;;10.00;2.58;;;;;;;17.54;64.54;101853.94;5028922;28;20386;-72
2023/06/15 00:54:50;;;;;;;4.68;2.70;;;;;;;17.41;64.61;101845.69;5020419;28;20037;-71
2023/06/15 00:57:17;;;;;;;3.33;2.50;;;;;;;17.40;64.75;101852.31;5025785;28;20040;-70
2023/06/15 00:59:44;;;;;;;6.43;2.72;;;;;;;17.39;65.57;101856.16;5027841;28;20465;-71
2023/06/15 01:02:12;;;;;;;9.48;2.95;;;;;;;17.38;65.81;101862.69;5025954;28;20060;-70
2023/06/15 01:04:40;;;;;;;10.30;2.70;;;;;;;17.55;64.44;101866.75;5026216;28;20492;-71
2023/06/15 01:07:10;;;;;;;5.57;2.83;;;;;;;17.59;64.09;101860.53;5007988;28;20041;-70
2023/06/15 01:09:38;;;;;;;3.55;2.80;;;;;;;17.63;63.89;101858.19;5022074;28;20491;-71
2023/06/15 01:12:07;;;;;;;3.08;2.30;;;;;;;17.66;63.08;101869.69;5024024;28;20449;-70
2023/06/15 01:14:33;;;;;;;9.90;3.17;;;;;;;17.67;62.99;101865.00;5024094;28;20541;-71
2023/06/15 01:17:13;;;;;;;4.53;2.47;;;;;;;17.69;62.91;101866.47;5024403;28;20038;-71
2023/06/15 01:19:57;;;;;;;6.05;2.78;;;;;;;17.68;62.73;101869.47;5040769;28;20032;-71
2023/06/15 01:22:41;;;;;;;2.83;2.40;;;;;;;17.66;62.79;101875.22;5025925;28;20029;-71
2023/06/15 01:25:33;;;;;;;4.75;2.83;;;;;;;17.64;62.80;101866.28;5021913;28;20033;-71
2023/06/15 01:28:03;;;;;;;6.30;2.75;;;;;;;17.59;62.77;101859.69;5025792;28;20052;-71
2023/06/15 01:30:37;;;;;;;4.30;3.00;;;;;;;17.63;62.48;101866.50;5023390;28;20021;-71
2023/06/15 01:33:02;;;;;;;10.15;2.95;;;;;;;17.68;62.15;101862.03;5010650;28;20493;-71
2023/06/15 01:35:28;;;;;;;6.13;2.80;;;;;;;17.69;62.12;101868.41;5023122;28;20025;-71
2023/06/15 01:37:53;;;;;;;5.60;3.10;;;;;;;17.69;61.92;101862.84;5022381;28;20124;-71
2023/06/15 01:40:19;;;;;;;5.40;2.80;;;;;;;17.70;62.13;101864.53;5022835;28;20113;-71
2023/06/15 01:42:46;;;;;;;6.25;3.08;;;;;;;17.64;62.40;101865.44;5020506;28;20128;-71
2023/06/15 01:45:14;;;;;;;9.05;3.25;;;;;;;17.60;62.46;101869.72;5020265;28;20034;-71
2023/06/15 01:47:41;;;;;;;8.55;3.03;;;;;;;17.64;62.09;101866.28;5003391;28;20092;-71
2023/06/15 01:50:08;;;;;;;5.13;3.05;;;;;;;17.57;62.22;101870.16;5021917;28;20041;-71
2023/06/15 01:52:34;;;;;;;10.27;3.42;;;;;;;17.61;62.44;101871.41;5024595;28;20560;-71
2023/06/15 01:54:59;;;;;;;6.93;3.20;;;;;;;17.59;63.01;101873.53;5026365;28;20028;-71
2023/06/15 01:57:25;;;;;;;10.10;3.20;;;;;;;17.59;62.90;101870.75;5021751;28;20112;-71
2023/06/15 01:59:54;;;;;;;6.03;3.07;;;;;;;17.55;62.70;101872.31;5023111;28;20508;-71
2023/06/15 02:02:20;;;;;;;12.48;3.08;;;;;;;17.49;63.13;101874.00;5025039;28;20053;-71
2023/06/15 02:04:46;;;;;;;4.75;3.25;;;;;;;17.49;63.58;101876.78;5023125;28;20113;-71
2023/06/15 02:07:12;;;;;;;8.47;3.33;;;;;;;17.48;63.28;101868.66;5020249;28;20116;-71
2023/06/15 02:09:37;;;;;;;;;;;;;;;17.47;63.21;101869.75;5058017;28;20087;-72
2023/06/15 02:12:03;;;;;;;8.90;3.22;;;;;;;17.44;63.58;101875.75;5023971;28;19913;-71
2023/06/15 02:14:29;;;;;;;17.63;3.42;;;;;;;17.37;64.02;101880.38;5025326;28;20095;-71
2023/06/15 02:16:58;;;;;;;6.70;3.77;;;;;;;17.34;64.69;101880.84;5026218;28;20564;-72
2023/06/15 02:19:24;;;;;;;10.35;3.78;;;;;;;17.25;65.18;101877.44;5020714;28;20037;-71
2023/06/15 02:21:50;;;;;;;4.47;3.53;;;;;;;17.27;65.32;101875.31;5024319;28;20068;-71
2023/06/15 02:24:17;;;;;;;11.50;3.90;;;;;;;17.28;65.31;101876.16;5023706;28;20797;-71
2023/06/15 02:26:43;;;;;;;;;;;;;;;17.22;65.52;101877.88;5044618;28;20480;-71
2023/06/15 02:29:08;;;;;;;11.43;5.13;;;;;;;17.20;65.90;101884.69;5036030;28;19943;-71
2023/06/15 02:31:36;;;;;;;14.83;7.43;;;;;;;17.19;65.68;101878.28;5024838;28;20050;-71
2023/06/15 02:34:01;;;;;;;12.43;8.70;;;;;;;17.17;66.10;101879.56;5021119;28;20037;-70
2023/06/15 02:36:28;;;;;;;18.00;10.13;;;;;;;17.12;66.88;101887.69;5017193;28;20046;-71
2023/06/15 02:38:53;;;;;;;;;;;;;;;17.13;66.82;101878.31;5025846;28;20512;-71
2023/06/15 02:41:20;;;;;;;14.32;9.60;;;;;;;17.07;67.14;101877.25;5024092;28;19910;-71
2023/06/15 02:43:46;;;;;;;;;;;;;;;17.04;67.25;101879.59;5006851;28;20030;-70
2023/06/15 02:46:11;;;;;;;14.52;9.52;;;;;;;16.99;68.27;101880.25;5041571;28;19913;-69
2023/06/15 02:48:37;;;;;;;14.93;8.97;;;;;;;16.94;68.10;101881.94;5022953;28;20025;-69
2023/06/15 02:51:03;;;;;;;17.10;11.23;;;;;;;16.90;68.67;101889.81;5021210;28;20072;-69
2023/06/15 02:53:28;;;;;;;18.63;10.40;;;;;;;16.87;69.08;101883.88;5026648;28;20049;-69
2023/06/15 02:55:54;;;;;;;16.90;10.73;;;;;;;16.84;69.51;101884.28;5027160;28;20120;-69
2023/06/15 02:58:20;;;;;;;21.77;11.30;;;;;;;16.80;69.28;101883.84;5024822;28;20025;-69
2023/06/15 03:00:50;;;;;;;20.80;10.70;;;;;;;16.83;69.50;101880.69;5023860;28;20034;-69
2023/06/15 03:03:26;;;;;;;19.80;11.00;;;;;;;16.80;69.72;101883.03;5023262;28;20033;-69
2023/06/15 03:05:52;;;;;;;18.60;11.02;;;;;;;16.73;70.12;101888.53;5021937;28;20489;-69
2023/06/15 03:08:18;;;;;;;24.10;11.20;;;;;;;16.68;70.64;101884.69;5025020;28;20026;-69
2023/06/15 03:10:45;;;;;;;19.70;11.10;;;;;;;16.70;70.80;101885.34;5022879;28;20040;-70
2023/06/15 03:13:10;;;;;;;16.85;10.73;;;;;;;16.66;70.56;101881.28;5021745;28;20778;-69
2023/06/15 03:15:36;;;;;;;26.07;11.00;;;;;;;16.64;70.74;101895.34;5020487;28;20097;-70
2023/06/15 03:18:04;;;;;;;17.70;9.97;;;;;;;16.59;70.52;101894.28;5021697;28;20082;-69
2023/06/15 03:20:32;;;;;;;22.75;10.90;;;;;;;16.51;71.81;101889.81;5023770;28;20146;-69
2023/06/15 03:22:59;;;;;;;27.55;10.68;;;;;;;16.63;71.97;101895.53;5022471;28;20083;-70
2023/06/15 03:25:25;;;;;;;18.38;9.13;;;;;;;16.61;72.04;101890.25;5025337;28;20060;-70
2023/06/15 03:27:53;;;;;;;20.77;9.87;;;;;;;16.62;71.89;101891.06;5022099;28;20061;-70
2023/06/15 03:30:20;;;;;;;18.77;9.18;;;;;;;16.54;71.57;101886.59;5021453;28;20038;-69
2023/06/15 03:32:47;;;;;;;20.17;10.40;;;;;;;16.53;72.26;101892.34;5022041;28;20025;-69
2023/06/15 03:35:14;;;;;;;22.52;9.77;;;;;;;16.52;72.08;101887.88;5018245;28;20018;-70
2023/06/15 03:37:39;;;;;;;30.05;12.00;;;;;;;16.45;72.94;101898.06;5020530;28;20049;-70
2023/06/15 03:40:05;;;;;;;22.77;11.53;;;;;;;16.41;72.62;101885.72;5019929;28;20617;-70
2023/06/15 03:42:32;;;;;;;35.15;11.18;;;;;;;16.38;73.34;101892.50;5023212;28;20478;-69
2023/06/15 03:44:57;;;;;;;26.75;11.82;;;;;;;16.41;73.48;101897.66;5022290;28;20029;-69
2023/06/15 03:47:23;;;;;;;24.60;11.10;;;;;;;16.42;73.81;101899.34;5019557;28;20523;-70
2023/06/15 03:49:49;;;;;;;26.30;10.87;;;;;;;16.38;74.14;101891.66;5021658;28;20104;-70
2023/06/15 03:52:15;;;;;;;25.13;11.05;;;;;;;16.43;73.77;101894.69;5024172;28;20032;-70
2023/06/15 03:54:40;;;;;;;26.17;13.43;;;;;;;16.43;74.67;101886.38;5020513;28;20040;-70
2023/06/15 03:57:06;;;;;;;27.23;11.57;;;;;;;16.42;74.63;101901.25;5021470;28;20477;-69
2023/06/15 03:59:32;;;;;;;28.00;11.68;;;;;;;16.40;75.24;101892.31;5023199;28;20080;-69
2023/06/15 04:01:57;;;;;;;25.03;11.17;;;;;;;16.44;75.16;101904.69;5026975;28;20493;-71
2023/06/15 04:04:22;;;;;;;23.53;11.23;;;;;;;16.42;75.59;101906.78;5024404;28;20521;-70
2023/06/15 04:06:48;;;;;;;25.83;11.57;;;;;;;16.43;75.24;101905.75;5023810;28;20036;-70
2023/06/15 04:09:14;;;;;;;24.50;10.90;;;;;;;16.48;75.58;101892.97;5026934;28;20401;-69
2023/06/15 04:11:41;;;;;;;23.75;11.30;;;;;;;16.44;74.99;101902.75;5026270;28;20139;-70
2023/06/15 04:14:06;;;;;;;30.38;11.15;;;;;;;16.42;75.64;101904.00;5028906;28;20536;-70
2023/06/15 04:16:33;;;;;;;23.20;10.30;;;;;;;16.46;75.62;101905.31;5030248;28;20094;-69
2023/06/15 04:18:58;;;;;;;28.27;9.48;;;;;;;16.47;75.92;101907.88;5028137;28;20025;-69
2023/06/15 04:21:24;;;;;;;22.40;9.20;;;;;;;16.49;76.30;101914.03;5025198;28;20044;-70
2023/06/15 04:23:51;;;;;;;26.73;10.43;;;;;;;16.54;76.49;101913.44;5026161;28;20042;-69
2023/06/15 04:26:17;;;;;;;31.02;9.20;;;;;;;16.49;77.19;101914.03;5028561;28;20082;-69
2023/06/15 04:28:45;;;;;;;15.48;8.10;;;;;;;16.57;76.27;101918.53;5028457;28;20026;-69
2023/06/15 04:31:17;;;;;;;14.65;7.82;;;;;;;16.68;76.67;101917.91;5025071;28;20146;-69
2023/06/15 04:33:44;;;;;;;21.58;8.88;;;;;;;16.71;76.16;101911.97;5022802;28;20523;-70
2023/06/15 04:36:14;;;;;;;23.25;8.23;;;;;;;16.74;76.48;101905.97;5023290;28;20033;-70
2023/06/15 04:38:46;;;;;;;19.25;8.00;;;;;;;16.82;76.36;101922.41;5026939;28;20025;-70
2023/06/15 04:41:16;;;;;;;21.85;8.02;;;;;;;16.92;76.24;101914.53;5025959;28;20028;-70
2023/06/15 04:43:42;;;;;;;18.00;7.63;;;;;;;17.03;75.89;101925.78;5024167;28;20048;-69
2023/06/15 04:46:11;;;;;;;13.88;7.20;;;;;;;17.08;75.60;101926.00;5024225;28;20063;-70
2023/06/15 04:48:37;;;;;;;14.05;7.63;;;;;;;17.09;76.17;101924.09;5024820;28;20029;-70
2023/06/15 04:51:02;;;;;;;13.00;7.47;;;;;;;17.17;75.81;101929.41;5026084;28;20112;-70
2023/06/15 04:53:28;;;;;;;14.57;8.47;;;;;;;17.24;75.62;101922.81;5024631;28;20025;-70
2023/06/15 04:55:53;;;;;;;23.37;7.43;;;;;;;17.32;75.16;101930.03;5023510;28;20453;-70
2023/06/15 04:58:19;;;;;;;14.53;7.17;;;;;;;17.34;75.54;101936.25;5025965;28;20029;-70
2023/06/15 05:00:44;;;;;;;11.87;7.40;;;;;;;17.46;75.03;101937.31;5020709;28;20118;-70
2023/06/15 05:03:11;;;;;;;28.60;7.17;;;;;;;17.58;74.91;101944.75;5027258;28;20107;-69
2023/06/15 05:05:36;;;;;;;12.98;7.20;;;;;;;17.71;74.52;101932.78;5020053;28;20546;-68
2023/06/15 05:08:02;;;;;;;16.27;6.97;;;;;;;17.77;73.83;101941.06;5027889;28;20037;-69
2023/06/15 05:10:28;;;;;;;12.32;7.28;;;;;;;18.02;72.61;101935.66;5023776;28;20038;-69
2023/06/15 05:12:54;;;;;;;17.65;6.55;;;;;;;18.56;71.14;101938.84;5024096;28;20044;-69
2023/06/15 05:15:20;;;;;;;17.13;6.43;;;;;;;19.52;68.18;101930.81;5024324;28;20025;-69
2023/06/15 05:17:46;;;;;;;10.30;6.40;;;;;;;20.48;64.23;101938.22;5020788;28;20112;-71
2023/06/15 05:20:13;;;;;;;13.25;6.45;;;;;;;21.39;60.83;101944.31;5027440;28;20121;-70
2023/06/15 05:22:39;;;;;;;12.15;6.47;;;;;;;22.03;57.43;101942.22;5028664;28;20151;-69
2023/06/15 05:25:05;;;;;;;19.67;5.40;;;;;;;22.63;56.26;101934.28;5058026;28;20021;-70
2023/06/15 05:27:31;;;;;;;14.23;6.25;;;;;;;23.43;54.15;101932.97;5025752;28;20049;-69
2023/06/15 05:29:56;;;;;;;15.90;5.65;;;;;;;24.01;51.41;101939.72;5025222;28;20091;-70
2023/06/15 05:32:21;;;;;;;14.17;6.07;;;;;;;24.19;51.07;101936.63;5027604;28;20060;-70
2023/06/15 05:34:47;;;;;;;12.63;5.78;;;;;;;24.78;48.36;101930.06;5023095;28;20116;-70
2023/06/15 05:37:12;;;;;;;9.50;5.53;;;;;;;25.14;49.21;101945.28;5026061;28;20073;-69
2023/06/15 05:39:39;;;;;;;12.82;5.72;;;;;;;25.27;47.92;101939.25;5009096;28;20279;-69
2023/06/15 05:42:05;;;;;;;16.48;6.40;;;;;;;25.68;46.96;101952.50;5025941;28;21899;-69
2023/06/15 05:44:30;;;;;;;12.10;5.47;;;;;;;25.88;46.95;101952.63;5022174;28;20027;-69
2023/06/15 05:46:56;;;;;;;;;;;;;;;26.31;44.11;101952.34;5025070;28;20033;-69
2023/06/15 05:49:21;;;;;;;16.42;5.93;;;;;;;26.21;43.59;101946.66;5025482;28;19912;-69
2023/06/15 05:51:47;;;;;;;;;;;;;;;26.90;43.09;101943.25;5025058;28;20457;-70
2023/06/15 05:54:12;;;;;;;11.48;5.82;;;;;;;26.69;43.46;101951.94;5021361;28;20343;-70
2023/06/15 05:56:37;;;;;;;;;;;;;;;26.91;43.37;101947.78;5028220;28;20079;-70
2023/06/15 05:59:03;;;;;;;11.95;5.18;;;;;;;27.54;41.01;101950.06;5036122;28;19913;-70
2023/06/15 06:01:28;;;;;;;16.33;5.45;;;;;;;27.44;41.61;101947.28;5024703;28;20037;-70
2023/06/15 06:03:54;;;;;;;16.83;5.30;;;;;;;27.76;40.01;101955.41;5021772;28;20045;-70
2023/06/15 06:06:19;;;;;;;18.13;5.78;;;;;;;27.64;40.80;101952.06;5025431;28;20021;-70
2023/06/15 06:08:46;;;;;;;7.93;5.28;;;;;;;27.34;41.67;101955.75;5008334;28;20465;-70
2023/06/15 06:11:11;;;;;;;14.50;5.45;;;;;;;27.75;40.04;101960.19;5021141;28;20017;-70
2023/06/15 06:13:37;;;;;;;15.15;5.30;;;;;;;28.06;39.23;101959.03;5021274;28;20029;-70
2023/06/15 06:16:02;;;;;;;13.60;5.65;;;;;;;27.76;40.91;101964.72;5018591;28;20029;-70
2023/06/15 06:18:28;;;;;;;10.20;5.25;;;;;;;27.68;41.50;101967.28;5023076;28;20137;-69
2023/06/15 06:20:53;;;;;;;10.93;4.90;;;;;;;28.42;38.14;101965.41;5022959;28;20025;-70
2023/06/15 06:23:19;;;;;;;17.25;5.38;;;;;;;28.53;38.64;101969.88;5025214;28;20040;-70
2023/06/15 06:25:45;;;;;;;13.02;5.40;;;;;;;28.56;39.16;101963.69;5055129;28;20553;-70
2023/06/15 06:28:12;;;;;;;12.18;4.82;;;;;;;28.53;39.77;101962.28;5024434;28;20034;-71
2023/06/15 06:30:38;;;;;;;14.57;5.30;;;;;;;28.92;39.64;101963.19;5023164;28;20030;-69
2023/06/15 06:33:04;;;;;;;16.13;5.60;;;;;;;29.24;38.32;101957.06;5023617;28;20079;-69
2023/06/15 06:35:30;;;;;;;13.65;6.32;;;;;;;28.62;39.04;101965.34;5022651;28;20057;-69
2023/06/15 06:37:56;;;;;;;16.60;5.65;;;;;;;28.81;38.50;101963.56;5025755;28;20456;-69
2023/06/15 06:40:21;;;;;;;16.17;6.00;;;;;;;28.99;38.43;101965.72;5020996;28;20124;-71
2023/06/15 06:42:46;;;;;;;26.20;5.85;;;;;;;28.55;39.38;101971.28;5025732;28;20056;-70
2023/06/15 06:45:12;;;;;;;11.90;6.35;;;;;;;28.36;39.44;101967.41;5052650;28;20025;-68
2023/06/15 06:47:38;;;;;;;9.88;6.25;;;;;;;28.64;39.35;101969.56;5024001;28;20033;-70
2023/06/15 06:50:05;;;;;;;8.40;5.00;;;;;;;28.58;39.59;101962.25;5021300;28;20033;-69
2023/06/15 06:52:30;;;;;;;13.45;6.07;;;;;;;28.38;39.28;101973.63;5021207;28;20025;-69
2023/06/15 06:54:56;;;;;;;24.02;6.22;;;;;;;28.37;39.25;101968.22;5024564;28;20087;-70
2023/06/15 07:03:09;;;;;;;12.02;6.45;;;;;;;28.68;39.06;101965.03;4884728;26;20040;-73
2023/06/15 07:05:35;;;;;;;;;;;;;;;29.06;38.96;101972.72;4924485;29;20024;-71
2023/06/15 07:08:00;;;;;;;16.90;6.37;;;;;;;28.46;39.67;101969.38;4906233;29;20636;-71
2023/06/15 07:10:25;;;;;;;;;;;;;;;28.73;39.58;101966.97;4925850;29;20321;-71
2023/06/15 07:12:55;;;;;;;14.43;6.53;;;;;;;28.86;39.83;101972.00;4925685;29;19965;-72
2023/06/15 07:15:21;;;;;;;11.95;6.22;;;;;;;28.20;40.30;101976.19;4907361;29;20042;-72
2023/06/15 07:17:46;;;;;;;;;;;;;;;28.95;39.47;101982.38;4930853;29;20399;-72
2023/06/15 07:20:11;;;;;;;9.87;5.60;;;;;;;29.10;39.64;101979.47;4929251;29;19922;-72
2023/06/15 07:22:36;;;;;;;;;;;;;;;28.45;39.95;101976.13;4907834;29;20419;-72
2023/06/15 07:25:02;;;;;;;12.88;5.40;;;;;;;28.14;40.88;101968.88;4929267;29;19946;-73
2023/06/15 07:27:27;;;;;;;;;;;;;;;28.53;40.02;101978.34;4928017;29;20027;-73
2023/06/15 07:29:53;;;;;;;16.25;6.68;;;;;;;28.42;38.87;101982.34;4927052;29;20004;-73
2023/06/15 07:32:18;;;;;;;;;;;;;;;28.34;38.41;101980.09;4926705;29;20026;-73
2023/06/15 07:34:44;;;;;;;14.70;5.28;;;;;;;28.09;39.51;101983.00;4926364;29;20409;-73
2023/06/15 07:37:09;;;;;;;22.30;5.50;;;;;;;28.39;38.24;101980.94;4932012;29;20031;-72
2023/06/15 07:39:36;;;;;;;13.85;6.05;;;;;;;29.02;38.72;101985.72;4928645;29;20550;-72
2023/06/15 07:42:02;;;;;;;8.75;5.18;;;;;;;29.07;38.23;101984.88;4927647;29;20127;-70
2023/06/15 07:44:27;;;;;;;10.30;4.82;;;;;;;28.86;37.56;101969.16;4927345;29;20106;-72
2023/06/15 07:46:53;;;;;;;10.95;5.13;;;;;;;28.20;38.78;101976.19;4927508;29;20036;-72
2023/06/15 07:49:18;;;;;;;14.88;5.40;;;;;;;28.27;38.05;101973.94;4926164;29;20027;-72
2023/06/15 07:51:45;;;;;;;14.70;5.30;;;;;;;27.73;38.73;101973.72;4920268;29;20042;-72
2023/06/15 07:54:10;;;;;;;13.70;5.43;;;;;;;27.43;39.26;101968.09;4930983;29;20752;-72
2023/06/15 07:56:36;;;;;;;12.50;5.00;;;;;;;27.99;39.49;101980.19;4929326;29;20039;-72
2023/06/15 07:59:01;;;;;;;16.23;4.10;;;;;;;28.00;38.92;101987.53;4910754;29;20080;-72
2023/06/15 08:01:27;;;;;;;13.23;4.70;;;;;;;27.35;39.66;101979.94;4915741;29;20502;-72
2023/06/15 08:03:52;;;;;;;5.17;3.97;;;;;;;27.48;39.33;101981.34;4927462;29;20044;-72
2023/06/15 08:06:18;;;;;;;11.83;4.40;;;;;;;27.03;39.51;101972.81;4930939;29;20769;-72
2023/06/15 08:08:45;;;;;;;8.55;4.28;;;;;;;27.33;39.75;101979.38;4930698;29;20038;-72
2023/06/15 08:11:10;;;;;;;15.50;4.40;;;;;;;27.55;40.24;101979.94;4912758;29;20039;-72
2023/06/15 08:13:37;;;;;;;10.75;4.45;;;;;;;27.27;37.77;101982.47;4925608;29;20087;-72
2023/06/15 08:16:03;;;;;;;13.13;4.13;;;;;;;27.16;36.75;101989.19;4929186;29;20066;-71
2023/06/15 08:18:29;;;;;;;6.22;3.50;;;;;;;27.09;38.88;101983.81;4927518;29;20507;-72
2023/06/15 08:20:55;;;;;;;13.18;4.40;;;;;;;26.59;38.68;101982.84;4925946;29;20126;-72
2023/06/15 08:23:21;;;;;;;;;;;;;;;27.15;38.93;101979.88;4928034;29;20059;-72
2023/06/15 08:25:47;;;;;;;12.25;4.07;;;;;;;27.09;38.93;101974.53;4928732;29;20357;-72
2023/06/15 08:28:13;;;;;;;8.20;3.95;;;;;;;27.29;39.20;101988.66;4930877;29;20115;-72
2023/06/15 08:30:38;;;;;;;11.13;3.55;;;;;;;27.25;39.31;101977.13;4915126;29;20068;-72
2023/06/15 08:33:03;;;;;;;13.17;3.97;;;;;;;27.57;39.43;101977.69;4929385;29;20090;-72
2023/06/15 08:35:29;;;;;;;5.60;3.53;;;;;;;27.47;38.07;101985.31;4928967;29;20633;-72
2023/06/15 08:37:55;;;;;;;8.60;3.70;;;;;;;27.35;38.13;101990.34;4926035;29;20035;-72
2023/06/15 08:40:20;;;;;;;14.20;3.47;;;;;;;27.73;36.47;101978.50;4925972;29;20368;-70
2023/06/15 08:42:46;;;;;;;16.23;3.70;;;;;;;27.12;36.34;101976.78;4929151;29;20039;-70
2023/06/15 08:45:14;;;;;;;8.18;3.20;;;;;;;27.18;37.92;101981.31;4925509;29;20084;-70
2023/06/15 08:47:40;;;;;;;8.73;3.28;;;;;;;27.32;36.02;101980.50;4930269;29;20383;-70
2023/06/15 08:50:06;;;;;;;8.73;3.13;;;;;;;27.33;36.41;101981.34;4927519;29;20446;-70
2023/06/15 08:52:37;;;;;;;9.77;4.03;;;;;;;27.32;37.33;101976.84;4928409;29;20035;-70
2023/06/15 08:55:04;;;;;;;8.27;3.47;;;;;;;27.17;37.30;101974.88;4926955;29;20032;-70
2023/06/15 08:57:32;;;;;;;11.90;3.30;;;;;;;27.09;35.68;101983.81;4911560;29;20028;-70
2023/06/15 08:59:58;;;;;;;7.55;3.70;;;;;;;27.09;37.24;101974.53;4909664;29;20467;-70
2023/06/15 09:02:25;;;;;;;11.90;3.50;;;;;;;27.16;37.13;101975.94;4926348;29;20047;-70
2023/06/15 09:04:51;;;;;;;7.78;3.40;;;;;;;27.46;36.63;101980.78;4925280;29;20031;-70
2023/06/15 09:07:21;;;;;;;8.40;3.15;;;;;;;27.63;36.67;101975.72;4925397;29;20039;-70
2023/06/15 09:10:21;;;;;;;5.78;2.90;;;;;;;28.14;35.91;101977.34;4926040;29;20088;-69
2023/06/15 09:12:52;;;;;;;10.27;2.95;;;;;;;28.25;34.25;101985.50;4928660;29;20368;-70
2023/06/15 09:15:25;;;;;;;11.07;3.05;;;;;;;28.41;34.43;101987.16;4927184;29;20028;-70
2023/06/15 09:17:56;;;;;;;6.15;2.92;;;;;;;28.39;32.91;101980.13;4928469;29;20479;-69
2023/06/15 09:20:24;;;;;;;9.95;3.08;;;;;;;28.21;33.71;101980.69;4924383;29;20497;-70
2023/06/15 09:22:50;;;;;;;7.93;3.15;;;;;;;28.05;33.89;101987.50;4926987;29;20027;-69
2023/06/15 09:25:20;;;;;;;7.68;3.20;;;;;;;28.21;33.23;101973.09;4911664;29;20027;-70
2023/06/15 09:28:00;;;;;;;7.45;3.35;;;;;;;28.30;32.90;101974.19;4928713;29;20042;-71
2023/06/15 09:30:31;;;;;;;8.02;3.20;;;;;;;28.23;33.56;101972.81;4926480;29;20046;-70
2023/06/15 09:32:57;;;;;;;14.80;3.45;;;;;;;28.33;32.53;101967.13;4924940;29;20123;-72
2023/06/15 09:35:22;;;;;;;;;;;;;;;28.44;32.97;101963.19;4928117;29;20039;-72
2023/06/15 09:37:52;;;;;;;7.60;3.25;;;;;;;28.65;33.34;101976.06;4925886;29;19914;-72
2023/06/15 09:40:18;;;;;;;8.93;3.30;;;;;;;28.58;32.61;101978.31;4930138;29;20059;-72
2023/06/15 09:42:50;;;;;;;13.30;3.13;;;;;;;28.96;32.37;101972.78;4928757;29;20106;-72
2023/06/15 09:45:16;;;;;;;13.25;2.92;;;;;;;29.32;31.18;101971.41;4924968;29;20027;-72
2023/06/15 09:47:41;;;;;;;8.07;3.13;;;;;;;29.38;30.45;101967.41;4927522;29;20038;-72
2023/06/15 09:50:10;;;;;;;11.02;3.00;;;;;;;29.35;30.74;101970.81;4925471;29;20254;-71
2023/06/15 09:52:43;;;;;;;8.55;3.72;;;;;;;29.48;32.20;101970.16;4926188;29;20032;-69
2023/06/15 09:55:09;;;;;;;8.07;3.70;;;;;;;29.79;30.59;101965.09;4924246;29;20085;-70
2023/06/15 09:57:35;;;;;;;4.85;2.97;;;;;;;29.82;30.52;101964.50;4924906;29;20059;-70
2023/06/15 10:00:02;;;;;;;9.45;3.00;;;;;;;28.76;31.78;101966.41;4927597;29;20046;-70
2023/06/15 10:02:28;;;;;;;4.28;3.25;;;;;;;28.97;32.01;101971.66;4922127;29;20534;-72
2023/06/15 10:04:54;;;;;;;5.93;3.00;;;;;;;29.37;31.35;101974.19;4906675;29;20058;-72
2023/06/15 10:07:21;;;;;;;18.25;4.00;;;;;;;28.97;32.81;101979.28;4889879;29;20040;-73
2023/06/15 10:09:48;;;;;;;12.50;3.78;;;;;;;28.56;32.85;101972.13;4907693;29;20092;-72
2023/06/15 10:12:21;;;;;;;6.82;2.85;;;;;;;27.54;32.07;101969.78;4905715;29;20150;-72
2023/06/15 10:15:09;;;;;;;4.75;3.03;;;;;;;27.60;34.16;101970.66;4908115;29;20123;-74
2023/06/15 10:17:35;;;;;;;;;;;;;;;28.08;34.17;101984.13;4907108;29;20024;-71
2023/06/15 10:20:19;;;;;;;11.68;3.90;;;;;;;27.56;35.25;101977.97;4910137;29;20326;-71
2023/06/15 10:22:57;;;;;;;7.22;3.10;;;;;;;27.23;35.25;101984.16;4904065;29;20032;-71
2023/06/15 10:25:24;;;;;;;7.95;3.20;;;;;;;28.17;34.95;101977.59;4906377;29;20024;-71
2023/06/15 10:27:50;;;;;;;7.43;3.15;;;;;;;28.74;32.92;101985.56;4911160;29;20398;-71
2023/06/15 10:30:22;;;;;;;11.30;3.53;;;;;;;28.91;31.60;101974.78;4907750;29;20043;-72
2023/06/15 10:33:06;;;;;;;7.50;3.55;;;;;;;28.52;32.20;101980.34;4905137;29;20032;-72
2023/06/15 10:36:07;;;;;;;11.05;3.45;;;;;;;27.73;33.33;101975.69;4907135;29;20028;-72
2023/06/15 10:38:50;;;;;;;16.73;3.40;;;;;;;28.29;31.23;101966.03;4865836;29;20452;-72
2023/06/15 10:41:17;;;;;;;8.75;3.22;;;;;;;28.58;31.45;101975.50;4890219;29;20032;-72
2023/06/15 10:43:59;;;;;;;6.35;3.03;;;;;;;28.68;30.06;101978.28;4909401;29;20089;-73
2023/06/15 10:46:35;;;;;;;7.20;2.90;;;;;;;27.39;31.26;101981.06;4907748;29;20427;-72
2023/06/15 10:49:05;;;;;;;12.90;3.42;;;;;;;27.65;31.81;101971.50;4906082;29;20020;-72
2023/06/15 10:51:41;;;;;;;6.68;3.08;;;;;;;28.72;31.21;101976.56;4906446;29;20055;-72
2023/06/15 10:54:25;;;;;;;18.75;4.10;;;;;;;28.92;30.48;101974.47;4906040;29;20365;-72
2023/06/15 10:56:58;;;;;;;11.20;2.85;;;;;;;28.90;28.91;101975.88;4905841;29;20040;-72
2023/06/15 10:59:47;;;;;;;9.75;3.17;;;;;;;29.09;28.62;101974.13;4907958;29;20062;-72
2023/06/15 11:02:28;;;;;;;12.30;3.05;;;;;;;29.28;29.38;101981.59;4908372;29;20095;-72
2023/06/15 11:05:03;;;;;;;8.88;3.33;;;;;;;29.92;28.91;101982.19;4927966;29;20479;-72
2023/06/15 11:07:34;;;;;;;17.05;3.97;;;;;;;29.94;29.01;101979.88;4923265;29;20614;-72
2023/06/15 11:10:09;;;;;;;16.00;3.47;;;;;;;29.61;27.97;101974.31;4928736;29;20023;-72
2023/06/15 11:12:38;;;;;;;6.78;2.90;;;;;;;29.83;28.55;101971.84;4919947;29;20527;-71
2023/06/15 11:15:06;;;;;;;12.10;3.90;;;;;;;29.90;28.35;101972.31;4927809;29;20040;-70
2023/06/15 11:17:55;;;;;;;7.20;3.17;;;;;;;29.58;28.39;101970.09;4924561;29;20079;-70
2023/06/15 11:20:38;;;;;;;5.15;3.13;;;;;;;29.76;28.15;101969.34;4923258;29;20036;-70
2023/06/15 11:23:25;;;;;;;11.73;3.17;;;;;;;29.82;28.77;101962.50;4925274;29;20071;-70
2023/06/15 11:25:54;;;;;;;14.27;3.65;;;;;;;30.04;28.47;101973.31;4905562;29;20063;-70
2023/06/15 11:28:22;;;;;;;13.10;3.63;;;;;;;30.23;29.11;101971.41;4911981;29;20052;-70
2023/06/15 11:30:49;;;;;;;12.10;3.20;;;;;;;29.44;29.93;101968.22;4925791;29;20082;-70
2023/06/15 11:33:25;;;;;;;6.57;2.90;;;;;;;30.06;30.15;101962.53;4908975;29;20087;-71